sensor_id;sensor_type;location;lat;lon;timestamp;P1;durP1;ratioP1;P2;durP2;ratioP2
33844;SDS011;20145;43.118;25.694;2023-11-22T00:01:29;7.70;;;6.78;;
33844;SDS011;20145;43.118;25.694;2023-11-22T00:03:56;8.38;;;7.00;;
33844;SDS011;20145;43.118;25.694;2023-11-22T00:06:23;8.05;;;6.50;;
33844;SDS011;20145;43.118;25.694;2023-11-22T00:08:49;7.00;;;6.32;;
33844;SDS011;20145;43.118;25.694;2023-11-22T00:11:15;13.13;;;9.30;;
33844;SDS011;20145;43.118;25.694;2023-11-22T00:13:40;15.32;;;10.88;;
33844;SDS011;20145;43.118;25.694;2023-11-22T00:21:06;7.88;;;7.18;;
33844;SDS011;20145;43.118;25.694;2023-11-22T00:23:31;8.63;;;7.68;;
33844;SDS011;20145;43.118;25.694;2023-11-22T00:25:59;7.85;;;7.15;;
33844;SDS011;20145;43.118;25.694;2023-11-22T00:28:26;14.07;;;9.73;;
33844;SDS011;20145;43.118;25.694;2023-11-22T00:30:59;9.68;;;7.53;;
33844;SDS011;20145;43.118;25.694;2023-11-22T00:33:26;9.52;;;7.20;;
33844;SDS011;20145;43.118;25.694;2023-11-22T00:35:55;7.07;;;6.38;;
33844;SDS011;20145;43.118;25.694;2023-11-22T00:41:32;10.65;;;7.90;;
33844;SDS011;20145;43.118;25.694;2023-11-22T00:44:00;11.18;;;8.40;;
33844;SDS011;20145;43.118;25.694;2023-11-22T00:46:26;8.90;;;7.90;;
33844;SDS011;20145;43.118;25.694;2023-11-22T00:48:53;16.95;;;12.07;;
33844;SDS011;20145;43.118;25.694;2023-11-22T00:51:18;12.32;;;8.40;;
33844;SDS011;20145;43.118;25.694;2023-11-22T00:53:46;13.95;;;8.57;;
33844;SDS011;20145;43.118;25.694;2023-11-22T00:56:12;10.43;;;9.15;;
33844;SDS011;20145;43.118;25.694;2023-11-22T00:58:38;12.65;;;8.10;;
33844;SDS011;20145;43.118;25.694;2023-11-22T01:01:08;9.77;;;8.77;;
33844;SDS011;20145;43.118;25.694;2023-11-22T01:03:34;10.13;;;9.07;;
33844;SDS011;20145;43.118;25.694;2023-11-22T01:06:02;10.93;;;8.60;;
33844;SDS011;20145;43.118;25.694;2023-11-22T01:08:28;11.90;;;10.15;;
33844;SDS011;20145;43.118;25.694;2023-11-22T01:10:55;12.70;;;10.68;;
33844;SDS011;20145;43.118;25.694;2023-11-22T01:13:22;10.57;;;9.43;;
33844;SDS011;20145;43.118;25.694;2023-11-22T01:20:55;11.00;;;8.50;;
33844;SDS011;20145;43.118;25.694;2023-11-22T01:23:21;11.57;;;9.38;;
33844;SDS011;20145;43.118;25.694;2023-11-22T01:25:46;11.35;;;9.68;;
33844;SDS011;20145;43.118;25.694;2023-11-22T01:28:13;9.98;;;8.90;;
33844;SDS011;20145;43.118;25.694;2023-11-22T01:30:39;14.60;;;9.07;;
33844;SDS011;20145;43.118;25.694;2023-11-22T01:33:05;11.82;;;9.23;;
33844;SDS011;20145;43.118;25.694;2023-11-22T01:35:31;13.05;;;8.85;;
33844;SDS011;20145;43.118;25.694;2023-11-22T01:37:58;9.57;;;8.50;;
33844;SDS011;20145;43.118;25.694;2023-11-22T01:40:24;11.27;;;9.40;;
33844;SDS011;20145;43.118;25.694;2023-11-22T01:42:51;12.23;;;9.18;;
33844;SDS011;20145;43.118;25.694;2023-11-22T01:45:17;10.70;;;8.73;;
33844;SDS011;20145;43.118;25.694;2023-11-22T01:47:45;10.77;;;9.20;;
33844;SDS011;20145;43.118;25.694;2023-11-22T01:50:24;13.35;;;10.10;;
33844;SDS011;20145;43.118;25.694;2023-11-22T01:52:53;12.02;;;10.30;;
33844;SDS011;20145;43.118;25.694;2023-11-22T02:01:36;12.45;;;10.02;;
33844;SDS011;20145;43.118;25.694;2023-11-22T02:04:02;11.27;;;10.18;;
33844;SDS011;20145;43.118;25.694;2023-11-22T02:06:28;13.75;;;9.80;;
33844;SDS011;20145;43.118;25.694;2023-11-22T02:08:56;10.73;;;9.60;;
33844;SDS011;20145;43.118;25.694;2023-11-22T02:11:22;13.98;;;11.05;;
33844;SDS011;20145;43.118;25.694;2023-11-22T02:13:49;12.70;;;10.23;;
33844;SDS011;20145;43.118;25.694;2023-11-22T02:16:24;13.15;;;10.63;;
33844;SDS011;20145;43.118;25.694;2023-11-22T02:18:50;12.73;;;10.75;;
33844;SDS011;20145;43.118;25.694;2023-11-22T02:21:17;12.10;;;10.32;;
33844;SDS011;20145;43.118;25.694;2023-11-22T02:23:44;11.93;;;10.52;;
33844;SDS011;20145;43.118;25.694;2023-11-22T02:26:09;13.00;;;9.50;;
33844;SDS011;20145;43.118;25.694;2023-11-22T02:28:35;11.85;;;10.55;;
33844;SDS011;20145;43.118;25.694;2023-11-22T02:31:03;12.60;;;9.85;;
33844;SDS011;20145;43.118;25.694;2023-11-22T02:33:28;13.55;;;10.60;;
33844;SDS011;20145;43.118;25.694;2023-11-22T02:35:54;13.18;;;10.32;;
33844;SDS011;20145;43.118;25.694;2023-11-22T02:38:20;13.98;;;10.77;;
33844;SDS011;20145;43.118;25.694;2023-11-22T02:41:04;13.98;;;10.93;;
33844;SDS011;20145;43.118;25.694;2023-11-22T02:43:30;13.63;;;10.43;;
33844;SDS011;20145;43.118;25.694;2023-11-22T02:45:56;12.82;;;11.52;;
33844;SDS011;20145;43.118;25.694;2023-11-22T02:48:22;15.15;;;11.48;;
33844;SDS011;20145;43.118;25.694;2023-11-22T02:50:49;15.73;;;11.10;;
33844;SDS011;20145;43.118;25.694;2023-11-22T02:53:14;13.98;;;10.65;;
33844;SDS011;20145;43.118;25.694;2023-11-22T02:55:40;12.32;;;10.27;;
33844;SDS011;20145;43.118;25.694;2023-11-22T02:58:06;16.90;;;11.43;;
33844;SDS011;20145;43.118;25.694;2023-11-22T03:00:31;17.30;;;10.45;;
33844;SDS011;20145;43.118;25.694;2023-11-22T03:03:01;11.50;;;9.52;;
33844;SDS011;20145;43.118;25.694;2023-11-22T03:05:29;14.13;;;10.27;;
33844;SDS011;20145;43.118;25.694;2023-11-22T03:07:57;11.93;;;9.63;;
33844;SDS011;20145;43.118;25.694;2023-11-22T03:10:25;11.20;;;9.68;;
33844;SDS011;20145;43.118;25.694;2023-11-22T03:12:51;11.48;;;9.93;;
33844;SDS011;20145;43.118;25.694;2023-11-22T03:15:17;13.98;;;11.20;;
33844;SDS011;20145;43.118;25.694;2023-11-22T03:17:42;12.55;;;11.05;;
33844;SDS011;20145;43.118;25.694;2023-11-22T03:20:16;15.30;;;11.43;;
33844;SDS011;20145;43.118;25.694;2023-11-22T03:22:50;15.90;;;11.63;;
33844;SDS011;20145;43.118;25.694;2023-11-22T03:25:28;15.68;;;11.20;;
33844;SDS011;20145;43.118;25.694;2023-11-22T03:27:55;14.10;;;11.70;;
33844;SDS011;20145;43.118;25.694;2023-11-22T03:33:09;14.18;;;11.93;;
33844;SDS011;20145;43.118;25.694;2023-11-22T03:38:54;13.63;;;11.80;;
33844;SDS011;20145;43.118;25.694;2023-11-22T03:41:21;17.17;;;13.55;;
33844;SDS011;20145;43.118;25.694;2023-11-22T03:43:53;20.23;;;15.82;;
33844;SDS011;20145;43.118;25.694;2023-11-22T03:46:26;20.85;;;15.77;;
33844;SDS011;20145;43.118;25.694;2023-11-22T03:52:11;18.42;;;14.20;;
33844;SDS011;20145;43.118;25.694;2023-11-22T03:54:39;16.80;;;13.82;;
33844;SDS011;20145;43.118;25.694;2023-11-22T03:57:06;17.00;;;13.82;;
33844;SDS011;20145;43.118;25.694;2023-11-22T03:59:33;15.57;;;13.40;;
33844;SDS011;20145;43.118;25.694;2023-11-22T04:04:30;16.50;;;13.85;;
33844;SDS011;20145;43.118;25.694;2023-11-22T04:07:06;18.38;;;13.50;;
33844;SDS011;20145;43.118;25.694;2023-11-22T04:12:03;18.33;;;13.82;;
33844;SDS011;20145;43.118;25.694;2023-11-22T04:17:00;18.77;;;11.97;;
33844;SDS011;20145;43.118;25.694;2023-11-22T04:19:28;16.50;;;13.77;;
33844;SDS011;20145;43.118;25.694;2023-11-22T04:21:54;16.52;;;13.70;;
33844;SDS011;20145;43.118;25.694;2023-11-22T04:26:58;22.02;;;14.98;;
33844;SDS011;20145;43.118;25.694;2023-11-22T04:29:23;22.05;;;14.55;;
33844;SDS011;20145;43.118;25.694;2023-11-22T04:31:50;19.95;;;13.55;;
33844;SDS011;20145;43.118;25.694;2023-11-22T04:34:15;16.60;;;13.18;;
33844;SDS011;20145;43.118;25.694;2023-11-22T04:36:41;16.17;;;12.32;;
33844;SDS011;20145;43.118;25.694;2023-11-22T04:39:07;20.58;;;14.48;;
33844;SDS011;20145;43.118;25.694;2023-11-22T04:41:39;19.35;;;14.18;;
33844;SDS011;20145;43.118;25.694;2023-11-22T04:44:06;16.17;;;12.52;;
33844;SDS011;20145;43.118;25.694;2023-11-22T04:46:32;16.73;;;12.07;;
33844;SDS011;20145;43.118;25.694;2023-11-22T04:49:00;15.68;;;12.63;;
33844;SDS011;20145;43.118;25.694;2023-11-22T04:51:26;17.77;;;12.85;;
33844;SDS011;20145;43.118;25.694;2023-11-22T04:53:55;17.30;;;13.73;;
33844;SDS011;20145;43.118;25.694;2023-11-22T04:56:21;15.27;;;13.13;;
33844;SDS011;20145;43.118;25.694;2023-11-22T04:58:46;14.52;;;12.77;;
33844;SDS011;20145;43.118;25.694;2023-11-22T05:01:12;17.77;;;13.35;;
33844;SDS011;20145;43.118;25.694;2023-11-22T05:03:39;18.05;;;12.80;;
33844;SDS011;20145;43.118;25.694;2023-11-22T05:06:05;16.13;;;14.50;;
33844;SDS011;20145;43.118;25.694;2023-11-22T05:08:32;19.30;;;15.48;;
33844;SDS011;20145;43.118;25.694;2023-11-22T05:11:00;21.33;;;15.20;;
33844;SDS011;20145;43.118;25.694;2023-11-22T05:13:27;18.35;;;14.75;;
33844;SDS011;20145;43.118;25.694;2023-11-22T05:15:52;17.80;;;14.57;;
33844;SDS011;20145;43.118;25.694;2023-11-22T05:18:18;23.77;;;16.23;;
33844;SDS011;20145;43.118;25.694;2023-11-22T05:20:44;20.52;;;16.70;;
33844;SDS011;20145;43.118;25.694;2023-11-22T05:23:09;23.33;;;16.50;;
33844;SDS011;20145;43.118;25.694;2023-11-22T05:25:35;19.60;;;16.10;;
33844;SDS011;20145;43.118;25.694;2023-11-22T05:28:01;23.50;;;18.35;;
33844;SDS011;20145;43.118;25.694;2023-11-22T05:30:26;17.58;;;14.52;;
33844;SDS011;20145;43.118;25.694;2023-11-22T05:32:52;24.95;;;14.95;;
33844;SDS011;20145;43.118;25.694;2023-11-22T05:35:18;21.60;;;14.52;;
33844;SDS011;20145;43.118;25.694;2023-11-22T05:37:44;16.77;;;14.32;;
33844;SDS011;20145;43.118;25.694;2023-11-22T05:40:10;20.20;;;14.57;;
33844;SDS011;20145;43.118;25.694;2023-11-22T05:42:36;24.42;;;16.63;;
33844;SDS011;20145;43.118;25.694;2023-11-22T05:45:02;19.98;;;15.32;;
33844;SDS011;20145;43.118;25.694;2023-11-22T05:47:29;25.20;;;17.83;;
33844;SDS011;20145;43.118;25.694;2023-11-22T05:49:54;25.67;;;18.75;;
33844;SDS011;20145;43.118;25.694;2023-11-22T05:52:20;27.35;;;20.20;;
33844;SDS011;20145;43.118;25.694;2023-11-22T05:54:48;29.20;;;18.02;;
33844;SDS011;20145;43.118;25.694;2023-11-22T05:57:14;21.80;;;18.40;;
33844;SDS011;20145;43.118;25.694;2023-11-22T05:59:40;29.33;;;22.30;;
33844;SDS011;20145;43.118;25.694;2023-11-22T06:02:06;30.10;;;21.70;;
33844;SDS011;20145;43.118;25.694;2023-11-22T06:04:31;39.78;;;29.55;;
33844;SDS011;20145;43.118;25.694;2023-11-22T06:06:57;31.95;;;23.52;;
33844;SDS011;20145;43.118;25.694;2023-11-22T06:09:22;29.75;;;23.75;;
33844;SDS011;20145;43.118;25.694;2023-11-22T06:11:48;32.97;;;24.13;;
33844;SDS011;20145;43.118;25.694;2023-11-22T06:14:14;28.88;;;20.92;;
33844;SDS011;20145;43.118;25.694;2023-11-22T06:16:39;27.73;;;17.80;;
33844;SDS011;20145;43.118;25.694;2023-11-22T06:19:05;21.05;;;17.17;;
33844;SDS011;20145;43.118;25.694;2023-11-22T06:21:32;24.23;;;18.75;;
33844;SDS011;20145;43.118;25.694;2023-11-22T06:23:58;25.40;;;20.30;;
33844;SDS011;20145;43.118;25.694;2023-11-22T06:26:24;32.28;;;26.15;;
33844;SDS011;20145;43.118;25.694;2023-11-22T06:28:50;29.13;;;23.83;;
33844;SDS011;20145;43.118;25.694;2023-11-22T06:31:15;35.10;;;23.55;;
33844;SDS011;20145;43.118;25.694;2023-11-22T06:33:41;31.05;;;23.25;;
33844;SDS011;20145;43.118;25.694;2023-11-22T06:36:07;27.20;;;19.70;;
33844;SDS011;20145;43.118;25.694;2023-11-22T06:38:35;29.00;;;20.50;;
33844;SDS011;20145;43.118;25.694;2023-11-22T06:41:00;24.10;;;18.83;;
33844;SDS011;20145;43.118;25.694;2023-11-22T06:43:26;20.80;;;15.65;;
33844;SDS011;20145;43.118;25.694;2023-11-22T06:45:51;22.23;;;16.55;;
33844;SDS011;20145;43.118;25.694;2023-11-22T06:48:17;20.60;;;15.80;;
33844;SDS011;20145;43.118;25.694;2023-11-22T06:50:43;17.90;;;14.98;;
33844;SDS011;20145;43.118;25.694;2023-11-22T06:53:10;23.75;;;17.85;;
33844;SDS011;20145;43.118;25.694;2023-11-22T06:55:36;32.15;;;22.45;;
33844;SDS011;20145;43.118;25.694;2023-11-22T06:58:03;29.70;;;22.08;;
33844;SDS011;20145;43.118;25.694;2023-11-22T07:00:31;36.70;;;22.08;;
33844;SDS011;20145;43.118;25.694;2023-11-22T07:02:58;38.00;;;23.70;;
33844;SDS011;20145;43.118;25.694;2023-11-22T07:05:23;31.00;;;22.52;;
33844;SDS011;20145;43.118;25.694;2023-11-22T07:07:49;42.53;;;27.95;;
33844;SDS011;20145;43.118;25.694;2023-11-22T07:10:15;41.67;;;26.83;;
33844;SDS011;20145;43.118;25.694;2023-11-22T07:12:40;35.00;;;24.80;;
33844;SDS011;20145;43.118;25.694;2023-11-22T07:15:08;23.50;;;18.55;;
33844;SDS011;20145;43.118;25.694;2023-11-22T07:17:35;27.00;;;18.65;;
33844;SDS011;20145;43.118;25.694;2023-11-22T07:20:00;26.23;;;18.30;;
33844;SDS011;20145;43.118;25.694;2023-11-22T07:22:26;25.45;;;17.83;;
33844;SDS011;20145;43.118;25.694;2023-11-22T07:24:52;21.77;;;16.80;;
33844;SDS011;20145;43.118;25.694;2023-11-22T07:27:19;21.45;;;14.65;;
33844;SDS011;20145;43.118;25.694;2023-11-22T07:29:46;19.85;;;16.02;;
33844;SDS011;20145;43.118;25.694;2023-11-22T07:32:12;22.42;;;17.08;;
33844;SDS011;20145;43.118;25.694;2023-11-22T07:34:39;24.60;;;16.38;;
33844;SDS011;20145;43.118;25.694;2023-11-22T07:37:06;20.33;;;17.25;;
33844;SDS011;20145;43.118;25.694;2023-11-22T07:39:32;22.80;;;17.08;;
33844;SDS011;20145;43.118;25.694;2023-11-22T07:42:00;20.88;;;16.90;;
33844;SDS011;20145;43.118;25.694;2023-11-22T07:44:26;22.83;;;17.45;;
33844;SDS011;20145;43.118;25.694;2023-11-22T07:46:52;24.00;;;16.70;;
33844;SDS011;20145;43.118;25.694;2023-11-22T07:49:21;23.38;;;17.17;;
33844;SDS011;20145;43.118;25.694;2023-11-22T07:51:47;20.00;;;16.02;;
33844;SDS011;20145;43.118;25.694;2023-11-22T07:54:18;50.47;;;45.35;;
33844;SDS011;20145;43.118;25.694;2023-11-22T07:56:44;25.92;;;19.20;;
33844;SDS011;20145;43.118;25.694;2023-11-22T07:59:10;21.67;;;17.30;;
33844;SDS011;20145;43.118;25.694;2023-11-22T08:01:38;21.70;;;17.30;;
33844;SDS011;20145;43.118;25.694;2023-11-22T08:04:08;27.63;;;19.13;;
33844;SDS011;20145;43.118;25.694;2023-11-22T08:06:34;24.80;;;18.50;;
33844;SDS011;20145;43.118;25.694;2023-11-22T08:09:00;28.25;;;20.10;;
33844;SDS011;20145;43.118;25.694;2023-11-22T08:11:29;33.58;;;20.02;;
33844;SDS011;20145;43.118;25.694;2023-11-22T08:13:56;33.05;;;21.13;;
33844;SDS011;20145;43.118;25.694;2023-11-22T08:16:24;24.55;;;20.80;;
33844;SDS011;20145;43.118;25.694;2023-11-22T08:18:52;33.70;;;24.90;;
33844;SDS011;20145;43.118;25.694;2023-11-22T08:21:19;31.20;;;23.50;;
33844;SDS011;20145;43.118;25.694;2023-11-22T08:23:47;27.58;;;22.15;;
33844;SDS011;20145;43.118;25.694;2023-11-22T08:26:13;27.95;;;20.80;;
33844;SDS011;20145;43.118;25.694;2023-11-22T08:28:39;23.25;;;19.98;;
33844;SDS011;20145;43.118;25.694;2023-11-22T08:31:05;31.02;;;19.35;;
33844;SDS011;20145;43.118;25.694;2023-11-22T08:33:34;32.10;;;24.92;;
33844;SDS011;20145;43.118;25.694;2023-11-22T08:36:06;28.83;;;23.25;;
33844;SDS011;20145;43.118;25.694;2023-11-22T08:38:34;30.05;;;23.75;;
33844;SDS011;20145;43.118;25.694;2023-11-22T08:41:03;33.88;;;24.90;;
33844;SDS011;20145;43.118;25.694;2023-11-22T08:43:31;29.83;;;22.98;;
33844;SDS011;20145;43.118;25.694;2023-11-22T08:45:57;31.95;;;22.25;;
33844;SDS011;20145;43.118;25.694;2023-11-22T08:48:24;27.92;;;22.20;;
33844;SDS011;20145;43.118;25.694;2023-11-22T08:50:50;31.25;;;23.67;;
33844;SDS011;20145;43.118;25.694;2023-11-22T08:53:18;30.92;;;23.38;;
33844;SDS011;20145;43.118;25.694;2023-11-22T08:55:45;34.75;;;26.88;;
33844;SDS011;20145;43.118;25.694;2023-11-22T08:58:12;34.10;;;26.23;;
33844;SDS011;20145;43.118;25.694;2023-11-22T09:00:38;31.63;;;25.92;;
33844;SDS011;20145;43.118;25.694;2023-11-22T09:03:04;31.23;;;24.40;;
33844;SDS011;20145;43.118;25.694;2023-11-22T09:05:30;29.00;;;23.13;;
33844;SDS011;20145;43.118;25.694;2023-11-22T09:07:56;31.00;;;23.80;;
33844;SDS011;20145;43.118;25.694;2023-11-22T09:10:24;31.40;;;24.85;;
33844;SDS011;20145;43.118;25.694;2023-11-22T09:12:50;33.47;;;26.73;;
33844;SDS011;20145;43.118;25.694;2023-11-22T09:15:16;43.13;;;28.60;;
33844;SDS011;20145;43.118;25.694;2023-11-22T09:17:43;34.58;;;27.05;;
33844;SDS011;20145;43.118;25.694;2023-11-22T09:20:11;42.25;;;29.38;;
33844;SDS011;20145;43.118;25.694;2023-11-22T09:22:44;38.83;;;29.85;;
33844;SDS011;20145;43.118;25.694;2023-11-22T09:25:15;37.00;;;28.13;;
33844;SDS011;20145;43.118;25.694;2023-11-22T09:27:46;38.72;;;29.52;;
33844;SDS011;20145;43.118;25.694;2023-11-22T09:30:18;44.45;;;31.73;;
33844;SDS011;20145;43.118;25.694;2023-11-22T09:33:12;44.55;;;32.20;;
33844;SDS011;20145;43.118;25.694;2023-11-22T09:35:40;45.30;;;32.67;;
33844;SDS011;20145;43.118;25.694;2023-11-22T09:38:09;41.95;;;31.95;;
33844;SDS011;20145;43.118;25.694;2023-11-22T09:40:46;48.95;;;34.22;;
33844;SDS011;20145;43.118;25.694;2023-11-22T09:43:14;52.35;;;38.90;;
33844;SDS011;20145;43.118;25.694;2023-11-22T09:45:43;48.03;;;35.70;;
33844;SDS011;20145;43.118;25.694;2023-11-22T09:48:19;46.25;;;33.45;;
33844;SDS011;20145;43.118;25.694;2023-11-22T09:50:59;46.38;;;34.40;;
33844;SDS011;20145;43.118;25.694;2023-11-22T09:53:38;47.13;;;33.25;;
33844;SDS011;20145;43.118;25.694;2023-11-22T09:56:10;46.00;;;33.40;;
33844;SDS011;20145;43.118;25.694;2023-11-22T09:58:39;48.50;;;34.60;;
33844;SDS011;20145;43.118;25.694;2023-11-22T10:01:10;65.78;;;44.40;;
33844;SDS011;20145;43.118;25.694;2023-11-22T10:03:36;62.47;;;41.33;;
33844;SDS011;20145;43.118;25.694;2023-11-22T10:06:03;69.03;;;41.83;;
33844;SDS011;20145;43.118;25.694;2023-11-22T10:08:29;54.05;;;34.35;;
33844;SDS011;20145;43.118;25.694;2023-11-22T10:10:56;58.15;;;40.75;;
33844;SDS011;20145;43.118;25.694;2023-11-22T10:13:23;52.33;;;36.92;;
33844;SDS011;20145;43.118;25.694;2023-11-22T10:15:52;46.28;;;35.88;;
33844;SDS011;20145;43.118;25.694;2023-11-22T10:18:19;46.28;;;32.45;;
33844;SDS011;20145;43.118;25.694;2023-11-22T10:20:46;36.78;;;29.48;;
33844;SDS011;20145;43.118;25.694;2023-11-22T10:23:15;39.55;;;29.15;;
33844;SDS011;20145;43.118;25.694;2023-11-22T10:25:49;35.58;;;28.00;;
33844;SDS011;20145;43.118;25.694;2023-11-22T10:28:18;44.03;;;34.13;;
33844;SDS011;20145;43.118;25.694;2023-11-22T10:30:48;41.85;;;33.00;;
33844;SDS011;20145;43.118;25.694;2023-11-22T10:33:15;41.10;;;31.30;;
33844;SDS011;20145;43.118;25.694;2023-11-22T10:35:45;38.80;;;30.05;;
33844;SDS011;20145;43.118;25.694;2023-11-22T10:38:14;60.70;;;45.30;;
33844;SDS011;20145;43.118;25.694;2023-11-22T10:40:40;51.55;;;40.55;;
33844;SDS011;20145;43.118;25.694;2023-11-22T10:43:10;52.70;;;40.70;;
33844;SDS011;20145;43.118;25.694;2023-11-22T10:45:37;61.05;;;47.97;;
33844;SDS011;20145;43.118;25.694;2023-11-22T10:48:04;48.53;;;36.13;;
33844;SDS011;20145;43.118;25.694;2023-11-22T10:50:30;91.78;;;61.17;;
33844;SDS011;20145;43.118;25.694;2023-11-22T10:52:58;53.47;;;36.22;;
33844;SDS011;20145;43.118;25.694;2023-11-22T10:55:27;111.63;;;68.80;;
33844;SDS011;20145;43.118;25.694;2023-11-22T10:58:00;65.40;;;44.17;;
33844;SDS011;20145;43.118;25.694;2023-11-22T11:00:29;37.25;;;28.60;;
33844;SDS011;20145;43.118;25.694;2023-11-22T11:03:01;94.45;;;62.22;;
33844;SDS011;20145;43.118;25.694;2023-11-22T11:05:34;136.38;;;80.65;;
33844;SDS011;20145;43.118;25.694;2023-11-22T11:08:11;51.42;;;34.05;;
33844;SDS011;20145;43.118;25.694;2023-11-22T11:10:41;159.93;;;88.28;;
33844;SDS011;20145;43.118;25.694;2023-11-22T11:13:07;66.45;;;42.28;;
33844;SDS011;20145;43.118;25.694;2023-11-22T11:15:40;122.55;;;65.90;;
33844;SDS011;20145;43.118;25.694;2023-11-22T11:18:11;106.25;;;59.20;;
33844;SDS011;20145;43.118;25.694;2023-11-22T11:20:53;184.60;;;93.63;;
33844;SDS011;20145;43.118;25.694;2023-11-22T11:23:39;73.55;;;41.35;;
33844;SDS011;20145;43.118;25.694;2023-11-22T11:26:15;51.90;;;34.00;;
33844;SDS011;20145;43.118;25.694;2023-11-22T11:31:09;117.47;;;55.90;;
33844;SDS011;20145;43.118;25.694;2023-11-22T11:33:52;83.88;;;43.22;;
33844;SDS011;20145;43.118;25.694;2023-11-22T11:36:24;67.00;;;38.35;;
33844;SDS011;20145;43.118;25.694;2023-11-22T11:38:51;66.85;;;37.78;;
33844;SDS011;20145;43.118;25.694;2023-11-22T11:41:34;89.32;;;44.55;;
33844;SDS011;20145;43.118;25.694;2023-11-22T11:44:02;64.40;;;36.17;;
33844;SDS011;20145;43.118;25.694;2023-11-22T11:46:29;62.00;;;35.65;;
33844;SDS011;20145;43.118;25.694;2023-11-22T11:48:55;112.00;;;50.47;;
33844;SDS011;20145;43.118;25.694;2023-11-22T11:51:22;82.32;;;42.13;;
33844;SDS011;20145;43.118;25.694;2023-11-22T11:53:49;147.30;;;62.53;;
33844;SDS011;20145;43.118;25.694;2023-11-22T11:56:15;45.83;;;30.45;;
33844;SDS011;20145;43.118;25.694;2023-11-22T11:58:45;140.48;;;62.05;;
33844;SDS011;20145;43.118;25.694;2023-11-22T12:01:12;114.82;;;52.15;;
33844;SDS011;20145;43.118;25.694;2023-11-22T12:03:41;67.55;;;37.90;;
33844;SDS011;20145;43.118;25.694;2023-11-22T12:06:07;49.08;;;32.92;;
33844;SDS011;20145;43.118;25.694;2023-11-22T12:08:33;47.33;;;31.35;;
33844;SDS011;20145;43.118;25.694;2023-11-22T12:11:03;60.25;;;38.17;;
33844;SDS011;20145;43.118;25.694;2023-11-22T12:13:30;42.72;;;28.50;;
33844;SDS011;20145;43.118;25.694;2023-11-22T12:15:59;53.33;;;34.22;;
33844;SDS011;20145;43.118;25.694;2023-11-22T12:18:27;48.15;;;31.73;;
33844;SDS011;20145;43.118;25.694;2023-11-22T12:20:57;42.30;;;30.48;;
33844;SDS011;20145;43.118;25.694;2023-11-22T12:23:25;34.08;;;25.58;;
33844;SDS011;20145;43.118;25.694;2023-11-22T12:25:58;38.97;;;26.65;;
33844;SDS011;20145;43.118;25.694;2023-11-22T12:28:26;49.88;;;32.17;;
33844;SDS011;20145;43.118;25.694;2023-11-22T12:30:54;45.78;;;30.25;;
33844;SDS011;20145;43.118;25.694;2023-11-22T12:33:20;29.25;;;23.67;;
33844;SDS011;20145;43.118;25.694;2023-11-22T12:35:46;52.53;;;33.78;;
33844;SDS011;20145;43.118;25.694;2023-11-22T12:38:13;35.17;;;25.42;;
33844;SDS011;20145;43.118;25.694;2023-11-22T12:40:43;32.33;;;23.17;;
33844;SDS011;20145;43.118;25.694;2023-11-22T12:45:39;31.80;;;22.88;;
33844;SDS011;20145;43.118;25.694;2023-11-22T12:48:19;30.67;;;22.58;;
33844;SDS011;20145;43.118;25.694;2023-11-22T12:50:49;32.15;;;24.25;;
33844;SDS011;20145;43.118;25.694;2023-11-22T12:53:15;33.92;;;24.92;;
33844;SDS011;20145;43.118;25.694;2023-11-22T12:55:42;30.80;;;22.05;;
33844;SDS011;20145;43.118;25.694;2023-11-22T12:58:14;28.40;;;22.48;;
33844;SDS011;20145;43.118;25.694;2023-11-22T13:00:44;32.60;;;23.35;;
33844;SDS011;20145;43.118;25.694;2023-11-22T13:03:11;30.63;;;23.27;;
33844;SDS011;20145;43.118;25.694;2023-11-22T13:05:37;31.77;;;22.55;;
33844;SDS011;20145;43.118;25.694;2023-11-22T13:08:10;32.38;;;21.75;;
33844;SDS011;20145;43.118;25.694;2023-11-22T13:10:45;31.05;;;23.02;;
33844;SDS011;20145;43.118;25.694;2023-11-22T13:13:13;31.90;;;22.38;;
33844;SDS011;20145;43.118;25.694;2023-11-22T13:15:40;28.35;;;21.42;;
33844;SDS011;20145;43.118;25.694;2023-11-22T13:18:06;37.38;;;25.50;;
33844;SDS011;20145;43.118;25.694;2023-11-22T13:20:33;31.38;;;23.40;;
33844;SDS011;20145;43.118;25.694;2023-11-22T13:23:01;32.28;;;21.85;;
33844;SDS011;20145;43.118;25.694;2023-11-22T13:25:28;32.97;;;22.42;;
33844;SDS011;20145;43.118;25.694;2023-11-22T13:27:54;34.85;;;22.27;;
33844;SDS011;20145;43.118;25.694;2023-11-22T13:30:21;34.03;;;21.30;;
33844;SDS011;20145;43.118;25.694;2023-11-22T13:32:51;32.65;;;21.13;;
33844;SDS011;20145;43.118;25.694;2023-11-22T13:35:19;35.53;;;22.17;;
33844;SDS011;20145;43.118;25.694;2023-11-22T13:37:45;37.83;;;23.58;;
33844;SDS011;20145;43.118;25.694;2023-11-22T13:40:15;48.40;;;25.83;;
33844;SDS011;20145;43.118;25.694;2023-11-22T13:42:43;45.13;;;25.17;;
33844;SDS011;20145;43.118;25.694;2023-11-22T13:45:13;37.95;;;23.50;;
33844;SDS011;20145;43.118;25.694;2023-11-22T13:47:43;41.50;;;24.75;;
33844;SDS011;20145;43.118;25.694;2023-11-22T13:50:23;37.25;;;22.55;;
33844;SDS011;20145;43.118;25.694;2023-11-22T13:52:52;33.33;;;21.17;;
33844;SDS011;20145;43.118;25.694;2023-11-22T13:55:18;34.63;;;19.98;;
33844;SDS011;20145;43.118;25.694;2023-11-22T13:57:53;35.00;;;22.70;;
33844;SDS011;20145;43.118;25.694;2023-11-22T14:00:24;30.67;;;22.10;;
33844;SDS011;20145;43.118;25.694;2023-11-22T14:02:58;33.97;;;22.10;;
33844;SDS011;20145;43.118;25.694;2023-11-22T14:05:30;41.05;;;25.83;;
33844;SDS011;20145;43.118;25.694;2023-11-22T14:07:56;34.03;;;22.08;;
33844;SDS011;20145;43.118;25.694;2023-11-22T14:10:22;29.00;;;20.17;;
33844;SDS011;20145;43.118;25.694;2023-11-22T14:12:48;25.63;;;18.67;;
33844;SDS011;20145;43.118;25.694;2023-11-22T14:15:14;26.25;;;18.67;;
33844;SDS011;20145;43.118;25.694;2023-11-22T14:17:40;24.45;;;18.63;;
33844;SDS011;20145;43.118;25.694;2023-11-22T14:20:12;28.45;;;19.80;;
33844;SDS011;20145;43.118;25.694;2023-11-22T14:22:39;24.02;;;18.60;;
33844;SDS011;20145;43.118;25.694;2023-11-22T14:25:05;26.38;;;19.50;;
33844;SDS011;20145;43.118;25.694;2023-11-22T14:27:39;26.98;;;20.58;;
33844;SDS011;20145;43.118;25.694;2023-11-22T14:30:06;27.75;;;19.73;;
33844;SDS011;20145;43.118;25.694;2023-11-22T14:32:33;30.40;;;21.23;;
33844;SDS011;20145;43.118;25.694;2023-11-22T14:35:01;25.25;;;20.10;;
33844;SDS011;20145;43.118;25.694;2023-11-22T14:37:29;29.50;;;21.58;;
33844;SDS011;20145;43.118;25.694;2023-11-22T14:39:56;36.10;;;23.98;;
33844;SDS011;20145;43.118;25.694;2023-11-22T14:42:22;49.97;;;38.05;;
33844;SDS011;20145;43.118;25.694;2023-11-22T14:44:50;33.00;;;24.30;;
33844;SDS011;20145;43.118;25.694;2023-11-22T14:47:16;32.00;;;23.52;;
33844;SDS011;20145;43.118;25.694;2023-11-22T14:52:14;31.90;;;23.38;;
33844;SDS011;20145;43.118;25.694;2023-11-22T14:54:41;34.00;;;24.95;;
33844;SDS011;20145;43.118;25.694;2023-11-22T14:57:07;30.08;;;23.23;;
33844;SDS011;20145;43.118;25.694;2023-11-22T14:59:35;49.08;;;33.17;;
33844;SDS011;20145;43.118;25.694;2023-11-22T15:02:02;37.42;;;26.13;;